sensor_id;sensor_type;location;lat;lon;timestamp;temperature;humidity
3794;DHT22;1912;51.358;12.282;2022-07-06T00:01:40;19.90;1.00
3794;DHT22;1912;51.358;12.282;2022-07-06T00:04:05;19.90;1.00
3794;DHT22;1912;51.358;12.282;2022-07-06T00:06:32;19.80;1.00
3794;DHT22;1912;51.358;12.282;2022-07-06T00:08:58;19.70;1.00
3794;DHT22;1912;51.358;12.282;2022-07-06T00:11:24;19.60;1.00
3794;DHT22;1912;51.358;12.282;2022-07-06T00:13:51;19.50;1.00
3794;DHT22;1912;51.358;12.282;2022-07-06T00:16:17;19.40;1.00
3794;DHT22;1912;51.358;12.282;2022-07-06T00:18:43;19.40;1.00
3794;DHT22;1912;51.358;12.282;2022-07-06T00:21:09;19.40;1.00
3794;DHT22;1912;51.358;12.282;2022-07-06T00:23:34;19.50;1.00
3794;DHT22;1912;51.358;12.282;2022-07-06T00:26:00;19.50;1.00
3794;DHT22;1912;51.358;12.282;2022-07-06T00:28:26;19.50;1.00
3794;DHT22;1912;51.358;12.282;2022-07-06T00:30:52;19.50;1.00
3794;DHT22;1912;51.358;12.282;2022-07-06T00:33:18;19.60;1.00
3794;DHT22;1912;51.358;12.282;2022-07-06T00:35:44;19.60;1.00
3794;DHT22;1912;51.358;12.282;2022-07-06T00:38:10;19.60;1.00
3794;DHT22;1912;51.358;12.282;2022-07-06T00:40:36;19.60;1.00
3794;DHT22;1912;51.358;12.282;2022-07-06T00:43:01;19.50;1.00
3794;DHT22;1912;51.358;12.282;2022-07-06T00:45:27;19.40;1.00
3794;DHT22;1912;51.358;12.282;2022-07-06T00:47:53;19.30;1.00
3794;DHT22;1912;51.358;12.282;2022-07-06T00:50:19;19.30;1.00
3794;DHT22;1912;51.358;12.282;2022-07-06T00:55:22;19.40;1.00
3794;DHT22;1912;51.358;12.282;2022-07-06T00:57:49;19.40;1.00
3794;DHT22;1912;51.358;12.282;2022-07-06T01:00:17;19.40;1.00
3794;DHT22;1912;51.358;12.282;2022-07-06T01:02:45;19.20;1.00
3794;DHT22;1912;51.358;12.282;2022-07-06T01:05:13;19.20;1.00
3794;DHT22;1912;51.358;12.282;2022-07-06T01:07:41;19.10;1.00
3794;DHT22;1912;51.358;12.282;2022-07-06T01:10:09;19.10;1.00
3794;DHT22;1912;51.358;12.282;2022-07-06T01:12:37;19.10;1.00
3794;DHT22;1912;51.358;12.282;2022-07-06T01:15:05;19.00;1.00
3794;DHT22;1912;51.358;12.282;2022-07-06T01:17:33;19.10;1.00
3794;DHT22;1912;51.358;12.282;2022-07-06T01:20:13;19.00;1.00
3794;DHT22;1912;51.358;12.282;2022-07-06T01:22:40;18.90;1.00
3794;DHT22;1912;51.358;12.282;2022-07-06T01:25:07;18.90;1.00
3794;DHT22;1912;51.358;12.282;2022-07-06T01:27:38;18.80;1.00
3794;DHT22;1912;51.358;12.282;2022-07-06T01:30:13;18.80;1.00
3794;DHT22;1912;51.358;12.282;2022-07-06T01:32:40;18.70;1.00
3794;DHT22;1912;51.358;12.282;2022-07-06T01:35:09;18.60;1.00
3794;DHT22;1912;51.358;12.282;2022-07-06T01:37:36;18.40;1.00
3794;DHT22;1912;51.358;12.282;2022-07-06T01:40:04;18.40;1.00
3794;DHT22;1912;51.358;12.282;2022-07-06T01:42:34;18.30;1.00
3794;DHT22;1912;51.358;12.282;2022-07-06T01:45:02;18.10;1.00
3794;DHT22;1912;51.358;12.282;2022-07-06T01:47:28;18.10;1.00
3794;DHT22;1912;51.358;12.282;2022-07-06T01:49:54;18.20;1.00
3794;DHT22;1912;51.358;12.282;2022-07-06T01:52:19;18.10;1.00
3794;DHT22;1912;51.358;12.282;2022-07-06T01:54:45;18.10;1.00
3794;DHT22;1912;51.358;12.282;2022-07-06T01:57:11;18.10;1.00
3794;DHT22;1912;51.358;12.282;2022-07-06T01:59:37;18.00;1.00
3794;DHT22;1912;51.358;12.282;2022-07-06T02:02:03;18.00;1.00
3794;DHT22;1912;51.358;12.282;2022-07-06T02:04:28;17.90;1.00
3794;DHT22;1912;51.358;12.282;2022-07-06T02:06:54;17.90;1.00
3794;DHT22;1912;51.358;12.282;2022-07-06T02:09:20;17.70;1.00
3794;DHT22;1912;51.358;12.282;2022-07-06T02:11:45;17.80;1.00
3794;DHT22;1912;51.358;12.282;2022-07-06T02:14:11;17.80;1.00
3794;DHT22;1912;51.358;12.282;2022-07-06T02:16:37;17.80;1.00
3794;DHT22;1912;51.358;12.282;2022-07-06T02:19:02;17.90;1.00
3794;DHT22;1912;51.358;12.282;2022-07-06T02:21:28;17.80;1.00
3794;DHT22;1912;51.358;12.282;2022-07-06T02:23:54;17.70;1.00
3794;DHT22;1912;51.358;12.282;2022-07-06T02:26:20;17.80;1.00
3794;DHT22;1912;51.358;12.282;2022-07-06T02:28:45;17.80;1.00
3794;DHT22;1912;51.358;12.282;2022-07-06T02:31:13;17.70;1.00
3794;DHT22;1912;51.358;12.282;2022-07-06T02:33:40;17.60;1.00
3794;DHT22;1912;51.358;12.282;2022-07-06T02:36:06;17.60;1.00
3794;DHT22;1912;51.358;12.282;2022-07-06T02:38:32;17.60;1.00
3794;DHT22;1912;51.358;12.282;2022-07-06T02:40:58;17.60;1.00
3794;DHT22;1912;51.358;12.282;2022-07-06T02:43:23;17.50;1.00
3794;DHT22;1912;51.358;12.282;2022-07-06T02:45:49;17.40;1.00
3794;DHT22;1912;51.358;12.282;2022-07-06T02:48:15;17.40;1.00
3794;DHT22;1912;51.358;12.282;2022-07-06T02:50:40;17.30;1.00
3794;DHT22;1912;51.358;12.282;2022-07-06T02:53:06;17.30;1.00
3794;DHT22;1912;51.358;12.282;2022-07-06T02:55:32;17.40;1.00
3794;DHT22;1912;51.358;12.282;2022-07-06T02:57:57;17.30;1.00
3794;DHT22;1912;51.358;12.282;2022-07-06T03:00:23;17.30;1.00
3794;DHT22;1912;51.358;12.282;2022-07-06T03:02:49;17.30;1.00
3794;DHT22;1912;51.358;12.282;2022-07-06T03:05:14;17.30;1.00
3794;DHT22;1912;51.358;12.282;2022-07-06T03:07:40;17.20;1.00
3794;DHT22;1912;51.358;12.282;2022-07-06T03:10:06;17.20;1.00
3794;DHT22;1912;51.358;12.282;2022-07-06T03:12:32;17.20;1.00
3794;DHT22;1912;51.358;12.282;2022-07-06T03:14:57;17.20;1.00
3794;DHT22;1912;51.358;12.282;2022-07-06T03:17:23;17.00;1.00
3794;DHT22;1912;51.358;12.282;2022-07-06T03:19:49;17.00;1.00
3794;DHT22;1912;51.358;12.282;2022-07-06T03:22:15;17.00;1.00
3794;DHT22;1912;51.358;12.282;2022-07-06T03:24:40;17.00;1.00
3794;DHT22;1912;51.358;12.282;2022-07-06T03:27:06;17.00;1.00
3794;DHT22;1912;51.358;12.282;2022-07-06T03:29:32;17.00;1.00
3794;DHT22;1912;51.358;12.282;2022-07-06T03:31:57;17.00;1.00
3794;DHT22;1912;51.358;12.282;2022-07-06T03:34:23;17.00;1.00
3794;DHT22;1912;51.358;12.282;2022-07-06T03:36:48;16.90;1.00
3794;DHT22;1912;51.358;12.282;2022-07-06T03:39:14;17.00;1.00
3794;DHT22;1912;51.358;12.282;2022-07-06T03:41:40;17.00;1.00
3794;DHT22;1912;51.358;12.282;2022-07-06T03:44:05;17.00;1.00
3794;DHT22;1912;51.358;12.282;2022-07-06T03:46:31;16.90;1.00
3794;DHT22;1912;51.358;12.282;2022-07-06T03:48:57;17.00;1.00
3794;DHT22;1912;51.358;12.282;2022-07-06T03:51:22;16.90;1.00
3794;DHT22;1912;51.358;12.282;2022-07-06T03:53:48;17.00;1.00
3794;DHT22;1912;51.358;12.282;2022-07-06T03:56:14;16.90;1.00
3794;DHT22;1912;51.358;12.282;2022-07-06T03:58:56;16.90;1.00
3794;DHT22;1912;51.358;12.282;2022-07-06T04:01:22;17.00;1.00
3794;DHT22;1912;51.358;12.282;2022-07-06T04:03:48;17.00;1.00
3794;DHT22;1912;51.358;12.282;2022-07-06T04:06:14;17.00;1.00
3794;DHT22;1912;51.358;12.282;2022-07-06T04:08:39;17.00;1.00
3794;DHT22;1912;51.358;12.282;2022-07-06T04:11:05;17.00;1.00
3794;DHT22;1912;51.358;12.282;2022-07-06T04:13:31;17.10;1.00
3794;DHT22;1912;51.358;12.282;2022-07-06T04:15:57;17.10;1.00
3794;DHT22;1912;51.358;12.282;2022-07-06T04:18:23;17.10;1.00
3794;DHT22;1912;51.358;12.282;2022-07-06T04:20:49;17.20;1.00
3794;DHT22;1912;51.358;12.282;2022-07-06T04:23:14;17.20;1.00
3794;DHT22;1912;51.358;12.282;2022-07-06T04:25:40;17.20;1.00
3794;DHT22;1912;51.358;12.282;2022-07-06T04:28:06;17.20;1.00
3794;DHT22;1912;51.358;12.282;2022-07-06T04:30:32;17.10;1.00
3794;DHT22;1912;51.358;12.282;2022-07-06T04:32:57;17.20;1.00
3794;DHT22;1912;51.358;12.282;2022-07-06T04:35:23;17.20;1.00
3794;DHT22;1912;51.358;12.282;2022-07-06T04:37:49;17.20;1.00
3794;DHT22;1912;51.358;12.282;2022-07-06T04:40:15;17.20;1.00
3794;DHT22;1912;51.358;12.282;2022-07-06T04:42:40;17.30;1.00
3794;DHT22;1912;51.358;12.282;2022-07-06T04:45:06;17.20;1.00
3794;DHT22;1912;51.358;12.282;2022-07-06T04:47:33;17.20;1.00
3794;DHT22;1912;51.358;12.282;2022-07-06T04:49:59;17.30;1.00
3794;DHT22;1912;51.358;12.282;2022-07-06T04:52:24;17.40;1.00
3794;DHT22;1912;51.358;12.282;2022-07-06T04:54:50;17.40;1.00
3794;DHT22;1912;51.358;12.282;2022-07-06T04:57:16;17.40;1.00
3794;DHT22;1912;51.358;12.282;2022-07-06T04:59:41;17.30;1.00
3794;DHT22;1912;51.358;12.282;2022-07-06T05:02:07;17.30;1.00
3794;DHT22;1912;51.358;12.282;2022-07-06T05:04:33;17.40;1.00
3794;DHT22;1912;51.358;12.282;2022-07-06T05:06:59;17.50;1.00
3794;DHT22;1912;51.358;12.282;2022-07-06T05:09:24;17.40;1.00
3794;DHT22;1912;51.358;12.282;2022-07-06T05:11:50;17.50;1.00
3794;DHT22;1912;51.358;12.282;2022-07-06T05:14:16;17.50;1.00
3794;DHT22;1912;51.358;12.282;2022-07-06T05:16:42;17.60;1.00
3794;DHT22;1912;51.358;12.282;2022-07-06T05:19:07;17.70;1.00
3794;DHT22;1912;51.358;12.282;2022-07-06T05:21:33;17.80;1.00
3794;DHT22;1912;51.358;12.282;2022-07-06T05:23:59;17.80;1.00
3794;DHT22;1912;51.358;12.282;2022-07-06T05:26:24;17.90;1.00
3794;DHT22;1912;51.358;12.282;2022-07-06T05:28:50;17.90;1.00
3794;DHT22;1912;51.358;12.282;2022-07-06T05:31:16;17.80;1.00
3794;DHT22;1912;51.358;12.282;2022-07-06T05:33:42;17.90;1.00
3794;DHT22;1912;51.358;12.282;2022-07-06T05:36:07;17.80;1.00
3794;DHT22;1912;51.358;12.282;2022-07-06T05:38:33;17.80;1.00
3794;DHT22;1912;51.358;12.282;2022-07-06T05:40:59;17.90;1.00
3794;DHT22;1912;51.358;12.282;2022-07-06T05:43:25;17.90;1.00
3794;DHT22;1912;51.358;12.282;2022-07-06T05:45:50;18.00;1.00
3794;DHT22;1912;51.358;12.282;2022-07-06T05:48:16;17.90;1.00
3794;DHT22;1912;51.358;12.282;2022-07-06T05:51:01;17.90;1.00
3794;DHT22;1912;51.358;12.282;2022-07-06T05:53:26;17.90;1.00
3794;DHT22;1912;51.358;12.282;2022-07-06T05:55:52;18.10;1.00
3794;DHT22;1912;51.358;12.282;2022-07-06T05:58:18;18.10;1.00
3794;DHT22;1912;51.358;12.282;2022-07-06T06:00:44;18.30;1.00
3794;DHT22;1912;51.358;12.282;2022-07-06T06:03:10;18.30;1.00
3794;DHT22;1912;51.358;12.282;2022-07-06T06:05:36;18.10;1.00
3794;DHT22;1912;51.358;12.282;2022-07-06T06:08:01;18.40;1.00
3794;DHT22;1912;51.358;12.282;2022-07-06T06:10:27;18.60;1.00
3794;DHT22;1912;51.358;12.282;2022-07-06T06:12:53;18.20;1.00
3794;DHT22;1912;51.358;12.282;2022-07-06T06:15:19;18.20;1.00
3794;DHT22;1912;51.358;12.282;2022-07-06T06:17:44;18.20;1.00
3794;DHT22;1912;51.358;12.282;2022-07-06T06:20:13;18.70;1.00
3794;DHT22;1912;51.358;12.282;2022-07-06T06:22:53;18.90;1.00
3794;DHT22;1912;51.358;12.282;2022-07-06T06:25:28;18.90;1.00
3794;DHT22;1912;51.358;12.282;2022-07-06T06:27:54;19.10;1.00
3794;DHT22;1912;51.358;12.282;2022-07-06T06:30:20;19.20;1.00
3794;DHT22;1912;51.358;12.282;2022-07-06T06:32:46;19.30;1.00
3794;DHT22;1912;51.358;12.282;2022-07-06T06:35:12;19.20;1.00
3794;DHT22;1912;51.358;12.282;2022-07-06T06:37:37;19.10;1.00
3794;DHT22;1912;51.358;12.282;2022-07-06T06:40:04;19.50;1.00
3794;DHT22;1912;51.358;12.282;2022-07-06T06:42:31;19.50;1.00
3794;DHT22;1912;51.358;12.282;2022-07-06T06:44:57;19.60;1.00
3794;DHT22;1912;51.358;12.282;2022-07-06T06:47:23;19.90;1.00
3794;DHT22;1912;51.358;12.282;2022-07-06T06:49:49;20.00;1.00
3794;DHT22;1912;51.358;12.282;2022-07-06T06:52:14;19.50;1.00
3794;DHT22;1912;51.358;12.282;2022-07-06T06:54:40;19.40;1.00
3794;DHT22;1912;51.358;12.282;2022-07-06T06:57:06;19.60;1.00
3794;DHT22;1912;51.358;12.282;2022-07-06T06:59:32;19.60;1.00
3794;DHT22;1912;51.358;12.282;2022-07-06T07:01:57;19.70;1.00
3794;DHT22;1912;51.358;12.282;2022-07-06T07:04:23;19.70;1.00
3794;DHT22;1912;51.358;12.282;2022-07-06T07:06:49;19.80;1.00
3794;DHT22;1912;51.358;12.282;2022-07-06T07:09:14;19.90;1.00
3794;DHT22;1912;51.358;12.282;2022-07-06T07:11:40;20.00;1.00
3794;DHT22;1912;51.358;12.282;2022-07-06T07:14:06;20.00;1.00
3794;DHT22;1912;51.358;12.282;2022-07-06T07:16:32;19.90;1.00
3794;DHT22;1912;51.358;12.282;2022-07-06T07:18:58;19.90;1.00
3794;DHT22;1912;51.358;12.282;2022-07-06T07:21:24;19.90;1.00
3794;DHT22;1912;51.358;12.282;2022-07-06T07:23:49;20.00;1.00
3794;DHT22;1912;51.358;12.282;2022-07-06T07:26:16;20.50;1.00
3794;DHT22;1912;51.358;12.282;2022-07-06T07:28:42;20.90;1.00
3794;DHT22;1912;51.358;12.282;2022-07-06T07:31:07;21.00;1.00
3794;DHT22;1912;51.358;12.282;2022-07-06T07:33:34;21.10;1.00
3794;DHT22;1912;51.358;12.282;2022-07-06T07:36:00;20.70;1.00
3794;DHT22;1912;51.358;12.282;2022-07-06T07:38:25;20.20;1.00
3794;DHT22;1912;51.358;12.282;2022-07-06T07:40:53;21.00;1.00
3794;DHT22;1912;51.358;12.282;2022-07-06T07:43:19;21.70;1.00
3794;DHT22;1912;51.358;12.282;2022-07-06T07:45:46;21.80;1.00
3794;DHT22;1912;51.358;12.282;2022-07-06T07:48:12;21.50;1.00
3794;DHT22;1912;51.358;12.282;2022-07-06T07:50:39;21.20;1.00
3794;DHT22;1912;51.358;12.282;2022-07-06T07:53:04;21.70;1.00
3794;DHT22;1912;51.358;12.282;2022-07-06T07:55:30;21.70;1.00
3794;DHT22;1912;51.358;12.282;2022-07-06T07:57:55;21.20;1.00
3794;DHT22;1912;51.358;12.282;2022-07-06T08:00:21;21.20;1.00
3794;DHT22;1912;51.358;12.282;2022-07-06T08:02:47;21.00;1.00
3794;DHT22;1912;51.358;12.282;2022-07-06T08:05:13;21.00;1.00
3794;DHT22;1912;51.358;12.282;2022-07-06T08:07:41;21.00;1.00
3794;DHT22;1912;51.358;12.282;2022-07-06T08:10:08;21.50;1.00
3794;DHT22;1912;51.358;12.282;2022-07-06T08:12:35;22.40;1.00
3794;DHT22;1912;51.358;12.282;2022-07-06T08:15:01;22.30;1.00
3794;DHT22;1912;51.358;12.282;2022-07-06T08:17:27;22.20;1.00
3794;DHT22;1912;51.358;12.282;2022-07-06T08:19:52;21.70;1.00
3794;DHT22;1912;51.358;12.282;2022-07-06T08:22:18;21.90;1.00
3794;DHT22;1912;51.358;12.282;2022-07-06T08:24:44;21.80;1.00
3794;DHT22;1912;51.358;12.282;2022-07-06T08:27:09;21.50;1.00
3794;DHT22;1912;51.358;12.282;2022-07-06T08:29:35;22.00;1.00
3794;DHT22;1912;51.358;12.282;2022-07-06T08:32:01;22.40;1.00
3794;DHT22;1912;51.358;12.282;2022-07-06T08:34:27;22.50;1.00
3794;DHT22;1912;51.358;12.282;2022-07-06T08:36:53;22.50;1.00
3794;DHT22;1912;51.358;12.282;2022-07-06T08:39:18;22.40;1.00
3794;DHT22;1912;51.358;12.282;2022-07-06T08:41:44;22.60;1.00
3794;DHT22;1912;51.358;12.282;2022-07-06T08:44:14;22.90;1.00
3794;DHT22;1912;51.358;12.282;2022-07-06T08:46:41;22.80;1.00
3794;DHT22;1912;51.358;12.282;2022-07-06T08:49:08;23.00;1.00
3794;DHT22;1912;51.358;12.282;2022-07-06T08:51:37;22.80;1.00
3794;DHT22;1912;51.358;12.282;2022-07-06T08:54:04;23.40;1.00
3794;DHT22;1912;51.358;12.282;2022-07-06T08:56:30;23.10;1.00
3794;DHT22;1912;51.358;12.282;2022-07-06T08:58:56;23.30;1.00
3794;DHT22;1912;51.358;12.282;2022-07-06T09:01:22;22.80;1.00
3794;DHT22;1912;51.358;12.282;2022-07-06T09:03:50;22.50;1.00
3794;DHT22;1912;51.358;12.282;2022-07-06T09:06:26;23.00;1.00
3794;DHT22;1912;51.358;12.282;2022-07-06T09:08:54;23.50;1.00
3794;DHT22;1912;51.358;12.282;2022-07-06T09:11:21;24.00;1.00
3794;DHT22;1912;51.358;12.282;2022-07-06T09:13:47;24.30;1.00
3794;DHT22;1912;51.358;12.282;2022-07-06T09:16:15;24.40;1.00
3794;DHT22;1912;51.358;12.282;2022-07-06T09:18:44;24.60;1.00
3794;DHT22;1912;51.358;12.282;2022-07-06T09:21:10;24.50;1.00
3794;DHT22;1912;51.358;12.282;2022-07-06T09:23:37;24.40;1.00
3794;DHT22;1912;51.358;12.282;2022-07-06T09:26:06;24.20;1.00
3794;DHT22;1912;51.358;12.282;2022-07-06T09:28:45;23.70;1.00
3794;DHT22;1912;51.358;12.282;2022-07-06T09:31:12;23.80;1.00
3794;DHT22;1912;51.358;12.282;2022-07-06T09:33:38;24.50;1.00
3794;DHT22;1912;51.358;12.282;2022-07-06T09:36:04;25.10;1.00
3794;DHT22;1912;51.358;12.282;2022-07-06T09:38:31;25.50;1.00
3794;DHT22;1912;51.358;12.282;2022-07-06T09:40:57;25.60;1.00
3794;DHT22;1912;51.358;12.282;2022-07-06T09:43:24;25.10;1.00
3794;DHT22;1912;51.358;12.282;2022-07-06T09:45:54;23.70;1.00
3794;DHT22;1912;51.358;12.282;2022-07-06T09:48:23;23.10;1.00
3794;DHT22;1912;51.358;12.282;2022-07-06T09:50:53;23.30;1.00
3794;DHT22;1912;51.358;12.282;2022-07-06T09:53:25;24.40;1.00
3794;DHT22;1912;51.358;12.282;2022-07-06T09:55:54;24.30;1.00
3794;DHT22;1912;51.358;12.282;2022-07-06T09:58:24;24.00;1.00
3794;DHT22;1912;51.358;12.282;2022-07-06T10:00:50;24.20;1.00
3794;DHT22;1912;51.358;12.282;2022-07-06T10:03:17;24.20;1.00
3794;DHT22;1912;51.358;12.282;2022-07-06T10:05:44;23.90;1.00
3794;DHT22;1912;51.358;12.282;2022-07-06T10:08:16;23.90;1.00
3794;DHT22;1912;51.358;12.282;2022-07-06T10:10:43;23.80;1.00
3794;DHT22;1912;51.358;12.282;2022-07-06T10:13:10;24.10;1.00
3794;DHT22;1912;51.358;12.282;2022-07-06T10:15:38;24.80;1.00
3794;DHT22;1912;51.358;12.282;2022-07-06T10:18:06;25.10;1.00
3794;DHT22;1912;51.358;12.282;2022-07-06T10:20:36;24.50;1.00
3794;DHT22;1912;51.358;12.282;2022-07-06T10:23:05;24.70;1.00
3794;DHT22;1912;51.358;12.282;2022-07-06T10:25:33;25.30;1.00
3794;DHT22;1912;51.358;12.282;2022-07-06T10:28:00;25.60;1.00
3794;DHT22;1912;51.358;12.282;2022-07-06T10:30:27;25.20;1.00
3794;DHT22;1912;51.358;12.282;2022-07-06T10:32:55;24.70;1.00
3794;DHT22;1912;51.358;12.282;2022-07-06T10:35:22;25.20;1.00
3794;DHT22;1912;51.358;12.282;2022-07-06T10:38:08;25.40;1.00
3794;DHT22;1912;51.358;12.282;2022-07-06T10:40:37;26.30;1.00
3794;DHT22;1912;51.358;12.282;2022-07-06T10:43:22;27.20;1.00
3794;DHT22;1912;51.358;12.282;2022-07-06T10:50:42;26.30;1.00
3794;DHT22;1912;51.358;12.282;2022-07-06T10:53:25;25.50;1.00
3794;DHT22;1912;51.358;12.282;2022-07-06T10:55:53;24.90;1.00
3794;DHT22;1912;51.358;12.282;2022-07-06T11:01:17;25.50;1.00
3794;DHT22;1912;51.358;12.282;2022-07-06T11:03:46;25.50;1.00
3794;DHT22;1912;51.358;12.282;2022-07-06T11:06:13;25.00;1.00
3794;DHT22;1912;51.358;12.282;2022-07-06T11:09:00;24.70;1.00
3794;DHT22;1912;51.358;12.282;2022-07-06T11:14:12;24.80;1.00
3794;DHT22;1912;51.358;12.282;2022-07-06T11:19:20;24.40;1.00
3794;DHT22;1912;51.358;12.282;2022-07-06T11:22:08;24.00;1.00
3794;DHT22;1912;51.358;12.282;2022-07-06T11:24:37;24.60;1.00
3794;DHT22;1912;51.358;12.282;2022-07-06T11:27:05;25.20;1.00
3794;DHT22;1912;51.358;12.282;2022-07-06T11:29:33;25.50;1.00
3794;DHT22;1912;51.358;12.282;2022-07-06T11:32:05;25.50;1.00
3794;DHT22;1912;51.358;12.282;2022-07-06T11:34:36;25.20;1.00
3794;DHT22;1912;51.358;12.282;2022-07-06T11:37:06;25.20;1.00
3794;DHT22;1912;51.358;12.282;2022-07-06T11:39:35;25.30;1.00
3794;DHT22;1912;51.358;12.282;2022-07-06T11:42:03;25.00;1.00
3794;DHT22;1912;51.358;12.282;2022-07-06T11:44:30;24.50;1.00
3794;DHT22;1912;51.358;12.282;2022-07-06T11:46:55;24.10;1.00
3794;DHT22;1912;51.358;12.282;2022-07-06T11:49:27;24.60;1.00
3794;DHT22;1912;51.358;12.282;2022-07-06T11:51:53;24.60;1.00
3794;DHT22;1912;51.358;12.282;2022-07-06T11:54:20;25.20;1.00
3794;DHT22;1912;51.358;12.282;2022-07-06T11:59:33;24.50;1.00
3794;DHT22;1912;51.358;12.282;2022-07-06T12:02:01;24.20;1.00
3794;DHT22;1912;51.358;12.282;2022-07-06T12:04:29;25.00;1.00
3794;DHT22;1912;51.358;12.282;2022-07-06T12:06:55;24.90;1.00
3794;DHT22;1912;51.358;12.282;2022-07-06T12:09:25;24.60;1.00
3794;DHT22;1912;51.358;12.282;2022-07-06T12:11:51;25.00;1.00
3794;DHT22;1912;51.358;12.282;2022-07-06T12:14:19;25.20;1.00
3794;DHT22;1912;51.358;12.282;2022-07-06T12:16:50;26.40;1.00
3794;DHT22;1912;51.358;12.282;2022-07-06T12:19:16;26.50;1.00
3794;DHT22;1912;51.358;12.282;2022-07-06T12:21:52;27.00;1.00
3794;DHT22;1912;51.358;12.282;2022-07-06T12:26:51;26.60;1.00
3794;DHT22;1912;51.358;12.282;2022-07-06T12:29:18;26.70;1.00
3794;DHT22;1912;51.358;12.282;2022-07-06T12:31:51;27.20;1.00
3794;DHT22;1912;51.358;12.282;2022-07-06T12:34:23;27.10;1.00
3794;DHT22;1912;51.358;12.282;2022-07-06T12:36:55;26.90;1.00
3794;DHT22;1912;51.358;12.282;2022-07-06T12:39:23;26.70;1.00
3794;DHT22;1912;51.358;12.282;2022-07-06T12:41:58;26.70;1.00
3794;DHT22;1912;51.358;12.282;2022-07-06T12:44:27;26.50;1.00
3794;DHT22;1912;51.358;12.282;2022-07-06T12:47:07;26.70;1.00
3794;DHT22;1912;51.358;12.282;2022-07-06T12:49:35;25.40;1.00
3794;DHT22;1912;51.358;12.282;2022-07-06T12:54:47;26.10;1.00
3794;DHT22;1912;51.358;12.282;2022-07-06T12:57:21;26.50;1.00
3794;DHT22;1912;51.358;12.282;2022-07-06T12:59:55;26.40;1.00
3794;DHT22;1912;51.358;12.282;2022-07-06T13:05:02;25.60;1.00
3794;DHT22;1912;51.358;12.282;2022-07-06T13:07:31;25.50;1.00
3794;DHT22;1912;51.358;12.282;2022-07-06T13:10:02;25.60;1.00
3794;DHT22;1912;51.358;12.282;2022-07-06T13:12:29;25.30;1.00
3794;DHT22;1912;51.358;12.282;2022-07-06T13:14:55;25.80;1.00
3794;DHT22;1912;51.358;12.282;2022-07-06T13:17:20;26.60;1.00
3794;DHT22;1912;51.358;12.282;2022-07-06T13:19:46;26.60;1.00
3794;DHT22;1912;51.358;12.282;2022-07-06T13:22:12;26.50;1.00
3794;DHT22;1912;51.358;12.282;2022-07-06T13:24:38;27.20;1.00
3794;DHT22;1912;51.358;12.282;2022-07-06T13:27:05;27.00;1.00
3794;DHT22;1912;51.358;12.282;2022-07-06T13:29:31;27.00;1.00
3794;DHT22;1912;51.358;12.282;2022-07-06T13:31:57;27.20;1.00
3794;DHT22;1912;51.358;12.282;2022-07-06T13:34:23;27.80;1.00
3794;DHT22;1912;51.358;12.282;2022-07-06T13:36:49;27.20;1.00
3794;DHT22;1912;51.358;12.282;2022-07-06T13:39:16;26.90;1.00
3794;DHT22;1912;51.358;12.282;2022-07-06T13:41:41;27.20;1.00
3794;DHT22;1912;51.358;12.282;2022-07-06T13:44:07;28.10;1.00
3794;DHT22;1912;51.358;12.282;2022-07-06T13:46:35;27.00;1.00
3794;DHT22;1912;51.358;12.282;2022-07-06T13:49:03;26.30;1.00
3794;DHT22;1912;51.358;12.282;2022-07-06T13:51:29;26.20;1.00
3794;DHT22;1912;51.358;12.282;2022-07-06T13:53:56;26.40;1.00
3794;DHT22;1912;51.358;12.282;2022-07-06T13:56:22;26.80;1.00
3794;DHT22;1912;51.358;12.282;2022-07-06T13:58:48;26.90;1.00
3794;DHT22;1912;51.358;12.282;2022-07-06T14:01:14;27.10;1.00
3794;DHT22;1912;51.358;12.282;2022-07-06T14:03:39;26.50;1.00
3794;DHT22;1912;51.358;12.282;2022-07-06T14:06:06;26.00;1.00
3794;DHT22;1912;51.358;12.282;2022-07-06T14:08:36;26.10;1.00
3794;DHT22;1912;51.358;12.282;2022-07-06T14:11:04;26.20;1.00
3794;DHT22;1912;51.358;12.282;2022-07-06T14:13:30;27.00;1.00
3794;DHT22;1912;51.358;12.282;2022-07-06T14:15:56;27.20;1.00
3794;DHT22;1912;51.358;12.282;2022-07-06T14:18:23;26.90;1.00
3794;DHT22;1912;51.358;12.282;2022-07-06T14:20:50;27.60;1.00
3794;DHT22;1912;51.358;12.282;2022-07-06T14:23:17;26.90;1.00
3794;DHT22;1912;51.358;12.282;2022-07-06T14:25:43;27.20;1.00
3794;DHT22;1912;51.358;12.282;2022-07-06T14:28:10;27.60;1.00
3794;DHT22;1912;51.358;12.282;2022-07-06T14:30:39;28.10;1.00
3794;DHT22;1912;51.358;12.282;2022-07-06T14:33:07;27.40;1.00
3794;DHT22;1912;51.358;12.282;2022-07-06T14:35:38;27.50;1.00
3794;DHT22;1912;51.358;12.282;2022-07-06T14:38:06;26.80;1.00
3794;DHT22;1912;51.358;12.282;2022-07-06T14:40:34;27.00;1.00
3794;DHT22;1912;51.358;12.282;2022-07-06T14:43:00;26.80;1.00
3794;DHT22;1912;51.358;12.282;2022-07-06T14:45:27;26.50;1.00
3794;DHT22;1912;51.358;12.282;2022-07-06T14:47:53;26.10;1.00
3794;DHT22;1912;51.358;12.282;2022-07-06T14:50:19;26.20;1.00
3794;DHT22;1912;51.358;12.282;2022-07-06T14:52:45;26.00;1.00
3794;DHT22;1912;51.358;12.282;2022-07-06T14:55:11;26.20;1.00
3794;DHT22;1912;51.358;12.282;2022-07-06T14:57:38;26.10;1.00
3794;DHT22;1912;51.358;12.282;2022-07-06T15:00:04;26.30;1.00
3794;DHT22;1912;51.358;12.282;2022-07-06T15:02:30;26.00;1.00
3794;DHT22;1912;51.358;12.282;2022-07-06T15:04:56;25.80;1.00
3794;DHT22;1912;51.358;12.282;2022-07-06T15:07:22;24.10;1.00
3794;DHT22;1912;51.358;12.282;2022-07-06T15:09:47;23.40;1.00
3794;DHT22;1912;51.358;12.282;2022-07-06T15:12:13;23.20;1.00
3794;DHT22;1912;51.358;12.282;2022-07-06T15:14:39;23.40;1.00
3794;DHT22;1912;51.358;12.282;2022-07-06T15:17:05;23.70;1.00
3794;DHT22;1912;51.358;12.282;2022-07-06T15:19:30;23.80;1.00
3794;DHT22;1912;51.358;12.282;2022-07-06T15:21:56;24.00;1.00
3794;DHT22;1912;51.358;12.282;2022-07-06T15:24:22;23.80;1.00
3794;DHT22;1912;51.358;12.282;2022-07-06T15:26:49;24.30;1.00
3794;DHT22;1912;51.358;12.282;2022-07-06T15:29:16;24.00;1.00
3794;DHT22;1912;51.358;12.282;2022-07-06T15:31:41;23.80;1.00
3794;DHT22;1912;51.358;12.282;2022-07-06T15:34:07;24.00;1.00
3794;DHT22;1912;51.358;12.282;2022-07-06T15:36:33;23.80;1.00
3794;DHT22;1912;51.358;12.282;2022-07-06T15:38:59;23.90;1.00
3794;DHT22;1912;51.358;12.282;2022-07-06T15:41:24;24.10;1.00
3794;DHT22;1912;51.358;12.282;2022-07-06T15:43:50;23.90;1.00
3794;DHT22;1912;51.358;12.282;2022-07-06T15:46:17;24.10;1.00
3794;DHT22;1912;51.358;12.282;2022-07-06T15:48:43;24.30;1.00
3794;DHT22;1912;51.358;12.282;2022-07-06T15:51:08;24.40;1.00
3794;DHT22;1912;51.358;12.282;2022-07-06T15:53:34;24.40;1.00
3794;DHT22;1912;51.358;12.282;2022-07-06T15:56:00;24.50;1.00
3794;DHT22;1912;51.358;12.282;2022-07-06T15:58:26;24.60;1.00
3794;DHT22;1912;51.358;12.282;2022-07-06T16:00:51;24.30;1.00
3794;DHT22;1912;51.358;12.282;2022-07-06T16:03:18;23.90;1.00
3794;DHT22;1912;51.358;12.282;2022-07-06T16:05:44;24.20;1.00
3794;DHT22;1912;51.358;12.282;2022-07-06T16:08:10;24.20;1.00
3794;DHT22;1912;51.358;12.282;2022-07-06T16:10:36;24.30;1.00
3794;DHT22;1912;51.358;12.282;2022-07-06T16:13:02;24.10;1.00
3794;DHT22;1912;51.358;12.282;2022-07-06T16:15:28;24.00;1.00
3794;DHT22;1912;51.358;12.282;2022-07-06T16:17:53;23.70;1.00
3794;DHT22;1912;51.358;12.282;2022-07-06T16:20:20;23.50;1.00
3794;DHT22;1912;51.358;12.282;2022-07-06T16:22:46;23.30;1.00
3794;DHT22;1912;51.358;12.282;2022-07-06T16:25:15;23.40;1.00
3794;DHT22;1912;51.358;12.282;2022-07-06T16:27:42;23.50;1.00